createdAt,value
2018-11-06T00:00:00.903Z,97686.26
2018-11-06T00:02:29.229Z,97683.89
2018-11-06T00:05:02.672Z,97680.84
2018-11-06T00:07:30.990Z,97680.72
2018-11-06T00:09:59.402Z,97677.22
2018-11-06T00:12:28.052Z,97673.91
2018-11-06T00:14:58.574Z,97674.45
2018-11-06T00:17:27.190Z,97671.85
2018-11-06T00:19:56.303Z,97669.69
2018-11-06T00:22:24.572Z,97668.87
2018-11-06T00:24:53.072Z,97666.38
2018-11-06T00:27:21.343Z,97666.92
2018-11-06T00:29:49.679Z,97667.03
2018-11-06T00:32:17.965Z,97666.63
2018-11-06T00:34:46.293Z,97668.48
2018-11-06T00:37:14.574Z,97667.17
2018-11-06T00:39:43.486Z,97669.88
2018-11-06T00:42:12.038Z,97666.95
2018-11-06T00:44:40.416Z,97667.48
2018-11-06T00:47:08.740Z,97674.49
2018-11-06T00:49:37.166Z,97674.88
2018-11-06T00:52:05.916Z,97674.36
2018-11-06T00:54:34.318Z,97680.30
2018-11-06T00:57:02.644Z,97676.82
2018-11-06T00:59:31.027Z,97671.63
2018-11-06T01:01:59.364Z,97674.04
2018-11-06T01:04:27.596Z,97674.42
2018-11-06T01:06:55.889Z,97666.08
2018-11-06T01:09:24.247Z,97658.98
2018-11-06T01:11:52.598Z,97656.07
2018-11-06T01:14:20.878Z,97660.53
2018-11-06T01:16:49.162Z,97660.98
2018-11-06T01:19:17.555Z,97652.61
2018-11-06T01:21:45.945Z,97642.12
2018-11-06T01:24:14.236Z,97640.01
2018-11-06T01:26:42.554Z,97636.50
2018-11-06T01:29:10.772Z,97645.75
2018-11-06T01:31:39.048Z,97646.20
2018-11-06T01:34:07.310Z,97647.91
2018-11-06T01:36:35.720Z,97653.61
2018-11-06T01:39:05.336Z,97653.66
2018-11-06T01:41:33.563Z,97651.52
2018-11-06T01:44:01.824Z,97642.52
2018-11-06T01:46:30.212Z,97641.68
2018-11-06T01:48:58.590Z,97640.89
2018-11-06T01:51:26.852Z,97647.05
2018-11-06T01:53:55.146Z,97641.84
2018-11-06T01:56:23.711Z,97649.89
2018-11-06T01:58:52.003Z,97644.36
2018-11-06T02:01:20.360Z,97653.91
2018-11-06T02:03:48.713Z,97651.34
2018-11-06T02:06:16.964Z,97652.70
2018-11-06T02:08:45.231Z,97646.83
2018-11-06T02:11:13.510Z,97660.36
2018-11-06T02:13:41.762Z,97657.84
2018-11-06T02:16:10.009Z,97657.91
2018-11-06T02:18:38.314Z,97654.50
2018-11-06T02:21:06.769Z,97643.75
2018-11-06T02:23:35.012Z,97643.75
2018-11-06T02:26:03.428Z,97636.77
2018-11-06T02:28:31.745Z,97633.31
2018-11-06T02:31:00.034Z,97626.36
2018-11-06T02:33:28.388Z,97639.00
2018-11-06T02:35:56.708Z,97633.05
2018-11-06T02:38:25.131Z,97632.25
2018-11-06T02:40:53.433Z,97626.09
2018-11-06T02:43:21.707Z,97628.91
2018-11-06T02:45:49.964Z,97624.58
2018-11-06T02:48:18.291Z,97618.50
2018-11-06T02:50:46.598Z,97621.20
2018-11-06T02:53:15.001Z,97627.36
2018-11-06T02:55:43.318Z,97629.13
2018-11-06T02:58:14.507Z,97630.03
2018-11-06T03:00:42.956Z,97627.05
2018-11-06T03:03:11.366Z,97623.12
2018-11-06T03:05:39.814Z,97630.63
2018-11-06T03:08:08.122Z,97630.69
2018-11-06T03:10:36.417Z,97632.92
2018-11-06T03:13:05.066Z,97628.59
2018-11-06T03:18:23.918Z,97648.23
2018-11-06T03:20:52.218Z,97648.23
2018-11-06T03:23:20.465Z,97653.73
2018-11-06T03:25:48.764Z,97649.54
2018-11-06T03:28:17.179Z,97649.61
2018-11-06T03:30:45.513Z,97636.83
2018-11-06T03:33:13.888Z,97634.55
2018-11-06T03:35:42.219Z,97632.83
2018-11-06T03:38:10.527Z,97621.53
2018-11-06T03:40:38.809Z,97625.00
2018-11-06T03:43:07.280Z,97624.66
2018-11-06T03:45:35.591Z,97636.83
2018-11-06T03:48:03.982Z,97634.61
2018-11-06T03:50:32.302Z,97633.34
2018-11-06T03:53:00.556Z,97633.88
2018-11-06T03:55:28.857Z,97624.72
2018-11-06T03:57:57.096Z,97633.98
2018-11-06T04:00:25.352Z,97641.44
2018-11-06T04:02:53.676Z,97651.48
2018-11-06T04:05:21.960Z,97648.18
2018-11-06T04:07:50.287Z,97661.24
2018-11-06T04:10:18.686Z,97662.09
2018-11-06T04:12:46.943Z,97660.38
2018-11-06T04:15:15.239Z,97659.49
2018-11-06T04:17:44.412Z,97651.20
2018-11-06T04:20:12.730Z,97657.62
2018-11-06T04:22:41.903Z,97648.52
2018-11-06T04:25:10.382Z,97655.40
2018-11-06T04:27:38.949Z,97660.53
2018-11-06T04:30:09.224Z,97661.03
2018-11-06T04:32:37.521Z,97665.11
2018-11-06T04:35:06.397Z,97661.30
2018-11-06T04:37:34.764Z,97657.52
2018-11-06T04:40:03.269Z,97661.41
2018-11-06T04:42:31.554Z,97664.41
2018-11-06T04:44:59.899Z,97662.20
2018-11-06T04:47:28.334Z,97659.14
2018-11-06T04:49:56.638Z,97652.55
2018-11-06T04:52:24.938Z,97651.24
2018-11-06T04:54:53.271Z,97651.59
2018-11-06T04:57:21.556Z,97653.60
2018-11-06T04:59:49.926Z,97664.90
2018-11-06T05:02:18.263Z,97658.30
2018-11-06T05:04:46.468Z,97653.42
2018-11-06T05:07:14.776Z,97649.09
2018-11-06T05:09:43.120Z,97644.72
2018-11-06T05:12:11.434Z,97642.91
2018-11-06T05:14:39.692Z,97640.70
2018-11-06T05:17:08.017Z,97637.27
2018-11-06T05:19:36.328Z,97635.45
2018-11-06T05:22:05.115Z,97643.30
2018-11-06T05:24:33.495Z,97641.14
2018-11-06T05:27:02.007Z,97641.49
2018-11-06T05:29:30.467Z,97631.43
2018-11-06T05:31:58.708Z,97624.94
2018-11-06T05:34:29.062Z,97630.22
2018-11-06T05:36:57.496Z,97624.61
2018-11-06T05:39:25.898Z,97635.52
2018-11-06T05:41:54.219Z,97634.22
2018-11-06T05:44:22.627Z,97631.64
2018-11-06T05:46:50.908Z,97638.14
2018-11-06T05:49:19.326Z,97627.33
2018-11-06T05:51:47.578Z,97624.22
2018-11-06T05:54:15.986Z,97628.18
2018-11-06T05:56:44.312Z,97631.25
2018-11-06T05:59:12.692Z,97624.67
2018-11-06T06:01:40.966Z,97627.39
2018-11-06T06:04:10.005Z,97632.96
2018-11-06T06:06:38.300Z,97640.30
2018-11-06T06:09:07.472Z,97643.64
2018-11-06T06:11:35.955Z,97649.22
2018-11-06T06:14:04.390Z,97654.91
2018-11-06T06:16:32.750Z,97648.94
2018-11-06T06:19:00.997Z,97645.87
2018-11-06T06:21:29.415Z,97655.06
2018-11-06T06:23:57.704Z,97640.17
2018-11-06T06:26:26.168Z,97625.78
2018-11-06T06:28:54.554Z,97626.57
2018-11-06T06:31:22.889Z,97638.81
2018-11-06T06:33:51.759Z,97630.09
2018-11-06T06:36:20.252Z,97631.23
2018-11-06T06:38:48.623Z,97622.53
2018-11-06T06:41:16.860Z,97620.19
2018-11-06T06:43:45.255Z,97626.59
2018-11-06T06:46:13.548Z,97632.31
2018-11-06T06:48:42.002Z,97629.55
2018-11-06T06:51:10.402Z,97629.67
2018-11-06T06:53:38.744Z,97641.17
2018-11-06T06:56:07.131Z,97642.16
2018-11-06T06:58:35.432Z,97631.75
2018-11-06T07:01:03.777Z,97629.82
2018-11-06T07:03:32.278Z,97622.23
2018-11-06T07:06:00.553Z,97624.28
2018-11-06T07:08:28.888Z,97624.09
2018-11-06T07:10:57.281Z,97631.75
2018-11-06T07:13:25.569Z,97626.36
2018-11-06T07:15:53.854Z,97622.69
2018-11-06T07:18:22.197Z,97619.46
2018-11-06T07:20:50.428Z,97622.25
2018-11-06T07:23:18.722Z,97620.72
2018-11-06T07:25:46.998Z,97627.34
2018-11-06T07:28:15.344Z,97612.92
2018-11-06T07:30:43.651Z,97610.99
2018-11-06T07:33:11.998Z,97615.13
2018-11-06T07:35:40.558Z,97617.05
2018-11-06T07:38:08.678Z,97613.93
2018-11-06T07:40:37.115Z,97617.13
2018-11-06T07:43:05.430Z,97616.13
2018-11-06T07:45:33.728Z,97617.36
2018-11-06T07:48:02.006Z,97609.50
2018-11-06T07:50:30.424Z,97614.10
2018-11-06T07:52:58.765Z,97607.89
2018-11-06T07:55:27.080Z,97619.22
2018-11-06T07:57:55.368Z,97613.22
2018-11-06T08:00:25.076Z,97608.95
2018-11-06T08:02:53.427Z,97610.45
2018-11-06T08:05:22.762Z,97612.52
2018-11-06T08:07:51.672Z,97622.33
2018-11-06T08:10:20.053Z,97621.71
2018-11-06T08:12:50.682Z,97619.08
2018-11-06T08:15:18.959Z,97616.35
2018-11-06T08:17:47.417Z,97623.52
2018-11-06T08:20:15.739Z,97626.69
2018-11-06T08:22:44.466Z,97620.77
2018-11-06T08:25:13.901Z,97616.50
2018-11-06T08:27:42.905Z,97610.13
2018-11-06T08:30:12.244Z,97613.75
2018-11-06T08:32:40.980Z,97605.98
2018-11-06T08:35:11.087Z,97606.24
2018-11-06T08:37:39.454Z,97611.62
2018-11-06T08:40:08.483Z,97608.36
2018-11-06T08:42:36.974Z,97612.34
2018-11-06T08:45:06.705Z,97621.59
2018-11-06T08:47:34.983Z,97614.64
2018-11-06T08:50:03.298Z,97609.67
2018-11-06T08:52:31.700Z,97607.58
2018-11-06T08:55:00.256Z,97608.82
2018-11-06T08:57:28.568Z,97603.27
2018-11-06T08:59:56.976Z,97603.41
2018-11-06T09:02:25.460Z,97609.74
2018-11-06T09:04:53.673Z,97607.05
2018-11-06T09:07:22.075Z,97600.58
2018-11-06T09:09:50.506Z,97594.14
2018-11-06T09:12:19.268Z,97596.88
2018-11-06T09:14:47.716Z,97594.71
2018-11-06T09:17:17.113Z,97583.01
2018-11-06T09:19:45.415Z,97588.54
2018-11-06T09:22:13.736Z,97597.33
2018-11-06T09:24:42.173Z,97593.82
2018-11-06T09:27:10.451Z,97589.70
2018-11-06T09:29:38.771Z,97597.12
2018-11-06T09:32:07.560Z,97590.80
2018-11-06T09:34:35.840Z,97592.73
2018-11-06T09:37:04.311Z,97588.73
2018-11-06T09:39:32.600Z,97598.12
2018-11-06T09:42:01.033Z,97597.22
2018-11-06T09:44:29.361Z,97609.29
2018-11-06T09:46:57.746Z,97597.66
2018-11-06T09:49:26.045Z,97595.53
2018-11-06T09:51:54.452Z,97588.63
2018-11-06T09:54:22.670Z,97587.55
2018-11-06T09:56:51.046Z,97589.44
2018-11-06T09:59:19.349Z,97584.09
2018-11-06T10:01:47.883Z,97578.05
2018-11-06T10:04:16.373Z,97579.90
2018-11-06T10:10:09.388Z,97582.93
2018-11-06T10:12:38.072Z,97576.78
2018-11-06T10:15:07.984Z,97568.07
2018-11-06T10:20:26.615Z,97569.91
2018-11-06T10:22:54.280Z,97566.96
2018-11-06T10:25:21.841Z,97560.19
2018-11-06T10:27:49.380Z,97552.89
2018-11-06T10:30:18.188Z,97549.25
2018-11-06T10:32:45.691Z,97549.00
2018-11-06T10:35:13.459Z,97544.55
2018-11-06T10:37:41.130Z,97544.88
2018-11-06T10:40:10.133Z,97544.44
2018-11-06T10:42:37.729Z,97542.73
2018-11-06T10:45:05.555Z,97543.98
2018-11-06T10:47:33.211Z,97537.59
2018-11-06T10:50:00.940Z,97530.78
2018-11-06T10:52:28.458Z,97529.36
2018-11-06T10:54:55.989Z,97524.25
2018-11-06T10:57:23.562Z,97522.21
2018-11-06T10:59:51.096Z,97515.73
2018-11-06T11:02:27.909Z,97516.97
2018-11-06T11:04:56.026Z,97510.17
2018-11-06T11:07:23.673Z,97507.36
2018-11-06T11:09:51.339Z,97502.39
2018-11-06T11:12:18.922Z,97501.30
2018-11-06T11:14:46.565Z,97494.11
2018-11-06T11:17:14.161Z,97490.95
2018-11-06T11:19:41.701Z,97483.76
2018-11-06T11:22:09.210Z,97474.39
2018-11-06T11:24:36.823Z,97482.31
2018-11-06T11:27:04.441Z,97472.80
2018-11-06T11:29:32.011Z,97475.97
2018-11-06T11:31:59.548Z,97470.13
2018-11-06T11:34:27.075Z,97474.39
2018-11-06T11:36:54.754Z,97469.91
2018-11-06T11:39:22.356Z,97461.00
2018-11-06T11:41:49.942Z,97461.39
2018-11-06T11:44:17.568Z,97458.22
2018-11-06T11:46:45.101Z,97455.19
2018-11-06T11:49:12.627Z,97455.89
2018-11-06T11:51:40.203Z,97453.22
2018-11-06T11:54:07.695Z,97454.80
2018-11-06T11:56:35.282Z,97461.98
2018-11-06T11:59:02.774Z,97455.19
2018-11-06T12:01:30.277Z,97458.11
2018-11-06T12:03:57.849Z,97463.33
2018-11-06T12:06:25.481Z,97456.27
2018-11-06T12:08:53.044Z,97449.34
2018-11-06T12:11:20.613Z,97446.05
2018-11-06T12:13:48.145Z,97448.23
2018-11-06T12:16:15.643Z,97453.00
2018-11-06T12:18:43.171Z,97442.89
2018-11-06T12:21:10.684Z,97449.83
2018-11-06T12:23:38.322Z,97451.90
2018-11-06T12:26:05.885Z,97447.15
2018-11-06T12:28:33.475Z,97443.62
2018-11-06T12:31:01.074Z,97447.50
2018-11-06T12:33:28.649Z,97438.78
2018-11-06T12:35:56.183Z,97439.36
2018-11-06T12:38:23.790Z,97431.24
2018-11-06T12:40:51.382Z,97436.60
2018-11-06T12:43:18.892Z,97439.03
2018-11-06T12:45:46.490Z,97437.69
2018-11-06T12:48:13.979Z,97434.02
2018-11-06T12:50:41.626Z,97429.02
2018-11-06T12:53:09.191Z,97436.45
2018-11-06T12:55:36.658Z,97429.75
2018-11-06T12:58:04.247Z,97438.17
2018-11-06T13:00:31.761Z,97425.73
2018-11-06T13:02:59.299Z,97430.38
2018-11-06T13:05:26.838Z,97423.55
2018-11-06T13:07:54.335Z,97420.52
2018-11-06T13:10:21.951Z,97417.94
2018-11-06T13:12:49.466Z,97415.75
2018-11-06T13:15:17.869Z,97417.94
2018-11-06T13:17:44.507Z,97407.11
2018-11-06T13:20:13.583Z,97413.70
2018-11-06T13:22:41.739Z,97408.09
2018-11-06T13:25:09.313Z,97406.27
2018-11-06T13:27:37.826Z,97401.98
2018-11-06T13:30:06.600Z,97404.67
2018-11-06T13:32:34.261Z,97408.09
2018-11-06T13:35:02.078Z,97408.58
2018-11-06T13:37:29.731Z,97395.04
2018-11-06T13:39:57.257Z,97401.63
2018-11-06T13:42:24.910Z,97400.28
2018-11-06T13:44:52.828Z,97395.28
2018-11-06T13:47:20.513Z,97393.09
2018-11-06T13:49:48.088Z,97399.80
2018-11-06T13:52:15.793Z,97398.09
2018-11-06T13:54:43.378Z,97396.27
2018-11-06T13:57:10.949Z,97392.74
2018-11-06T13:59:38.503Z,97392.86
2018-11-06T14:02:06.111Z,97390.17
2018-11-06T14:04:33.686Z,97388.84
2018-11-06T14:07:01.211Z,97386.16
2018-11-06T14:09:28.747Z,97389.19
2018-11-06T14:11:56.231Z,97387.61
2018-11-06T14:14:23.744Z,97394.30
2018-11-06T14:16:51.272Z,97395.30
2018-11-06T14:19:18.869Z,97393.45
2018-11-06T14:21:46.445Z,97393.34
2018-11-06T14:24:14.109Z,97398.70
2018-11-06T14:26:41.694Z,97401.98
2018-11-06T14:29:09.318Z,97400.16
2018-11-06T14:31:36.963Z,97399.42
2018-11-06T14:34:05.624Z,97405.13
2018-11-06T14:36:33.988Z,97401.13
2018-11-06T14:39:02.229Z,97396.49
2018-11-06T14:41:30.461Z,97403.83
2018-11-06T14:43:58.741Z,97406.48
2018-11-06T14:46:27.096Z,97404.89
2018-11-06T14:48:55.532Z,97407.06
2018-11-06T14:51:23.754Z,97411.91
2018-11-06T14:53:52.087Z,97415.91
2018-11-06T14:56:20.352Z,97411.66
2018-11-06T14:58:48.568Z,97411.41
2018-11-06T15:01:16.819Z,97409.57
2018-11-06T15:03:45.079Z,97416.16
2018-11-06T15:06:13.413Z,97417.36
2018-11-06T15:08:41.830Z,97419.54
2018-11-06T15:11:10.104Z,97427.97
2018-11-06T15:13:38.355Z,97425.28
2018-11-06T15:16:06.691Z,97412.84
2018-11-06T15:18:34.981Z,97414.06
2018-11-06T15:21:04.301Z,97414.06
2018-11-06T15:23:32.561Z,97419.42
2018-11-06T15:26:00.955Z,97417.73
2018-11-06T15:28:29.305Z,97425.47
2018-11-06T15:33:49.040Z,97443.27
2018-11-06T15:36:23.962Z,97438.16
2018-11-06T15:38:53.370Z,97445.70
2018-11-06T15:41:21.717Z,97440.87
2018-11-06T15:43:49.997Z,97437.61
2018-11-06T15:46:17.562Z,97437.89
2018-11-06T15:48:50.323Z,97440.56
2018-11-06T15:51:18.692Z,97440.31
2018-11-06T15:53:51.813Z,97451.88
2018-11-06T15:56:20.146Z,97448.21
2018-11-06T15:58:48.458Z,97450.05
2018-11-06T16:01:16.939Z,97456.73
2018-11-06T16:03:45.297Z,97461.25
2018-11-06T16:06:15.290Z,97473.98
2018-11-06T16:08:43.597Z,97479.80
2018-11-06T16:11:11.161Z,97486.45
2018-11-06T16:13:38.706Z,97494.94
2018-11-06T16:16:07.308Z,97497.06
2018-11-06T16:18:41.443Z,97493.30
2018-11-06T16:21:09.756Z,97505.53
2018-11-06T16:23:38.046Z,97511.80
2018-11-06T16:26:11.812Z,97515.56
2018-11-06T16:28:40.138Z,97525.77
2018-11-06T16:31:10.492Z,97537.09
2018-11-06T16:33:38.888Z,97551.69
2018-11-06T16:36:10.112Z,97561.33
2018-11-06T16:38:40.555Z,97592.29
2018-11-06T16:41:09.030Z,97613.39
2018-11-06T16:43:47.536Z,97624.05
2018-11-06T16:46:16.703Z,97622.50
2018-11-06T16:48:45.081Z,97621.66
2018-11-06T16:51:13.393Z,97622.50
2018-11-06T16:53:41.844Z,97621.83
2018-11-06T16:56:10.171Z,97634.42
2018-11-06T16:58:40.586Z,97638.75
2018-11-06T17:01:11.150Z,97643.38
2018-11-06T17:03:39.344Z,97644.31
2018-11-06T17:06:12.333Z,97645.87
2018-11-06T17:08:40.683Z,97644.07
2018-11-06T17:11:12.350Z,97653.34
2018-11-06T17:13:40.688Z,97660.39
2018-11-06T17:16:09.078Z,97669.13
2018-11-06T17:18:44.061Z,97671.63
2018-11-06T17:21:12.484Z,97679.86
2018-11-06T17:23:40.962Z,97686.02
2018-11-06T17:26:19.265Z,97693.51
2018-11-06T17:28:47.611Z,97705.06
2018-11-06T17:31:16.012Z,97706.16
2018-11-06T17:33:44.634Z,97711.34
2018-11-06T17:36:12.985Z,97711.86
2018-11-06T17:38:41.395Z,97716.53
2018-11-06T17:41:09.781Z,97715.82
2018-11-06T17:43:38.421Z,97717.19
2018-11-06T17:46:06.858Z,97724.27
2018-11-06T17:48:35.612Z,97723.20
2018-11-06T17:51:03.940Z,97731.59
2018-11-06T17:53:32.300Z,97733.32
2018-11-06T17:56:02.708Z,97737.86
2018-11-06T17:58:31.102Z,97741.62
2018-11-06T18:00:59.861Z,97741.62
2018-11-06T18:03:29.287Z,97752.13
2018-11-06T18:05:58.650Z,97741.27
2018-11-06T18:08:37.919Z,97746.27
2018-11-06T18:11:06.364Z,97752.84
2018-11-06T18:13:34.796Z,97761.64
2018-11-06T18:16:03.231Z,97765.28
2018-11-06T18:18:32.826Z,97766.37
2018-11-06T18:21:02.242Z,97761.73
2018-11-06T18:23:37.637Z,97766.44
2018-11-06T18:26:06.082Z,97777.16
2018-11-06T18:28:40.815Z,97782.91
2018-11-06T18:31:21.648Z,97788.27
2018-11-06T18:33:50.105Z,97792.63
2018-11-06T18:36:19.471Z,97792.98
2018-11-06T18:38:48.146Z,97803.55
2018-11-06T18:41:31.724Z,97803.05
2018-11-06T18:44:01.340Z,97813.66
2018-11-06T18:46:29.819Z,97816.58
2018-11-06T18:48:58.161Z,97802.53
2018-11-06T18:51:27.543Z,97799.23
2018-11-06T18:53:56.899Z,97807.87
2018-11-06T18:56:25.197Z,97810.69
2018-11-06T18:58:53.478Z,97814.81
2018-11-06T19:01:21.923Z,97816.50
2018-11-06T19:03:50.239Z,97810.20
2018-11-06T19:06:18.589Z,97809.21
2018-11-06T19:08:46.876Z,97813.48
2018-11-06T19:11:15.894Z,97812.76
2018-11-06T19:13:50.044Z,97817.77
2018-11-06T19:16:18.425Z,97823.28
2018-11-06T19:18:46.680Z,97819.25
2018-11-06T19:21:15.032Z,97823.73
2018-11-06T19:23:43.352Z,97829.09
2018-11-06T19:26:11.607Z,97821.19
2018-11-06T19:28:39.985Z,97818.61
2018-11-06T19:31:08.403Z,97820.09
2018-11-06T19:33:36.695Z,97816.41
2018-11-06T19:36:05.198Z,97816.14
2018-11-06T19:38:37.918Z,97820.41
2018-11-06T19:41:06.461Z,97832.31
2018-11-06T19:43:34.716Z,97831.56
2018-11-06T19:46:03.025Z,97824.25
2018-11-06T19:48:32.995Z,97816.94
2018-11-06T19:51:01.430Z,97820.33
2018-11-06T19:53:29.895Z,97830.43
2018-11-06T19:56:02.709Z,97836.37
2018-11-06T19:58:30.980Z,97846.84
2018-11-06T20:00:59.430Z,97847.06
2018-11-06T20:03:27.687Z,97846.31
2018-11-06T20:05:56.068Z,97849.59
2018-11-06T20:08:24.260Z,97850.20
2018-11-06T20:10:52.607Z,97853.97
2018-11-06T20:13:21.014Z,97852.23
2018-11-06T20:15:49.393Z,97856.71
2018-11-06T20:18:18.137Z,97864.48
2018-11-06T20:20:46.581Z,97876.67
2018-11-06T20:23:15.029Z,97873.59
2018-11-06T20:25:46.713Z,97872.48
2018-11-06T20:28:14.972Z,97867.84
2018-11-06T20:30:43.347Z,97863.92
2018-11-06T20:33:12.827Z,97865.36
2018-11-06T20:35:41.191Z,97860.98
2018-11-06T20:38:19.663Z,97862.91
2018-11-06T20:40:48.033Z,97863.40
2018-11-06T20:43:16.589Z,97864.38
2018-11-06T20:45:48.326Z,97861.70
2018-11-06T20:48:16.598Z,97859.97
2018-11-06T20:50:44.892Z,97861.31
2018-11-06T20:53:15.610Z,97860.42
2018-11-06T20:55:44.428Z,97863.46
2018-11-06T20:58:12.941Z,97866.27
2018-11-06T21:00:43.065Z,97870.38
2018-11-06T21:03:11.670Z,97865.13
2018-11-06T21:05:42.169Z,97873.28
2018-11-06T21:08:14.184Z,97868.52
2018-11-06T21:10:42.632Z,97866.81
2018-11-06T21:13:11.051Z,97860.22
2018-11-06T21:15:39.177Z,97860.34
2018-11-06T21:18:08.645Z,97856.78
2018-11-06T21:20:37.124Z,97866.16
2018-11-06T21:23:05.649Z,97879.67
2018-11-06T21:25:34.097Z,97882.84
2018-11-06T21:28:05.784Z,97882.93
2018-11-06T21:30:34.125Z,97884.85
2018-11-06T21:33:09.390Z,97881.69
2018-11-06T21:35:37.836Z,97884.85
2018-11-06T21:38:07.220Z,97884.48
2018-11-06T21:40:35.556Z,97879.23
2018-11-06T21:43:10.173Z,97884.85
2018-11-06T21:45:40.635Z,97879.98
2018-11-06T21:48:09.090Z,97872.05
2018-11-06T21:50:42.665Z,97878.16
2018-11-06T21:53:12.188Z,97867.67
2018-11-06T21:55:41.921Z,97869.38
2018-11-06T21:58:12.523Z,97864.15
2018-11-06T22:00:41.131Z,97875.34
2018-11-06T22:03:13.429Z,97870.94
2018-11-06T22:05:42.186Z,97872.77
2018-11-06T22:08:15.111Z,97873.25
2018-11-06T22:10:49.304Z,97880.04
2018-11-06T22:13:18.680Z,97883.20
2018-11-06T22:15:47.024Z,97888.91
2018-11-06T22:18:16.500Z,97883.20
2018-11-06T22:20:52.599Z,97887.31
2018-11-06T22:23:21.023Z,97882.09
2018-11-06T22:25:49.315Z,97889.72
2018-11-06T22:28:17.734Z,97898.72
2018-11-06T22:30:46.195Z,97903.72
2018-11-06T22:33:14.639Z,97903.81
2018-11-06T22:35:42.959Z,97903.81
2018-11-06T22:38:11.313Z,97900.77
2018-11-06T22:40:39.698Z,97902.20
2018-11-06T22:43:09.904Z,97900.02
2018-11-06T22:45:38.514Z,97903.18
2018-11-06T22:48:09.013Z,97904.97
2018-11-06T22:50:37.449Z,97902.42
2018-11-06T22:53:06.157Z,97899.34
2018-11-06T22:55:35.482Z,97900.33
2018-11-06T22:58:06.933Z,97901.66
2018-11-06T23:00:44.581Z,97901.66
2018-11-06T23:03:15.159Z,97907.98
2018-11-06T23:05:43.590Z,97906.66
2018-11-06T23:08:17.476Z,97905.89
2018-11-06T23:10:47.563Z,97902.73
2018-11-06T23:13:17.369Z,97904.20
2018-11-06T23:15:45.700Z,97910.48
2018-11-06T23:18:14.418Z,97908.78
2018-11-06T23:20:42.725Z,97905.63
2018-11-06T23:23:12.215Z,97903.05
2018-11-06T23:25:40.511Z,97902.19
2018-11-06T23:28:08.765Z,97900.00
2018-11-06T23:30:37.089Z,97902.31
2018-11-06T23:33:05.647Z,97899.25
2018-11-06T23:35:34.038Z,97896.57
2018-11-06T23:38:02.380Z,97896.20
2018-11-06T23:40:30.696Z,97898.03
2018-11-06T23:43:04.144Z,97903.84
2018-11-06T23:45:32.445Z,97904.33
2018-11-06T23:48:00.734Z,97904.81
2018-11-06T23:50:29.021Z,97912.35
2018-11-06T23:52:59.549Z,97909.41
2018-11-06T23:55:27.892Z,97909.05
2018-11-06T23:57:56.343Z,97915.25
